Time;durP1;ratioP1;P1;durP2;ratioP2;P2;SDS_P1;SDS_P2;PMS_P1;PMS_P2;Temp;Humidity;BMP_temperature;BMP_pressure;BME280_temperature;BME280_humidity;BME280_pressure;Samples;Min_cycle;Max_cycle;Signal;HPM_P1;HPM_P2
2022/11/21 00:00:47;;;;;;;7.38;1.85;;;;;;;5.47;100.00;99320.38;4998080;28;20046;-72
2022/11/21 00:03:14;;;;;;;5.85;1.65;;;;;;;5.44;100.00;99321.34;4997156;28;20410;-72
2022/11/21 00:05:43;;;;;;;4.45;1.30;;;;;;;5.47;100.00;99323.00;4988186;28;20132;-72
2022/11/21 00:08:11;;;;;;;3.40;1.25;;;;;;;5.46;100.00;99323.91;4998066;28;20057;-72
2022/11/21 00:10:38;;;;;;;4.82;1.25;;;;;;;5.46;100.00;99316.88;4999005;28;20061;-72
2022/11/21 00:13:06;;;;;;;5.38;1.63;;;;;;;5.18;100.00;99288.34;4996879;28;20455;-71
2022/11/21 00:15:36;;;;;;;5.50;1.10;;;;;;;5.32;100.00;99307.91;4984164;28;20187;-70
2022/11/21 00:18:03;;;;;;;6.22;1.23;;;;;;;5.44;100.00;99315.25;4994386;28;20178;-70
2022/11/21 00:20:30;;;;;;;4.20;1.08;;;;;;;5.44;100.00;99315.25;4999038;28;20050;-70
2022/11/21 00:22:57;;;;;;;4.53;1.10;;;;;;;5.44;100.00;99304.72;5002898;28;20507;-70
2022/11/21 00:25:23;;;;;;;3.65;0.95;;;;;;;5.45;100.00;99312.56;4988335;28;20043;-70
2022/11/21 00:27:51;;;;;;;4.57;1.08;;;;;;;5.42;100.00;99301.31;4986493;28;20072;-70
2022/11/21 00:30:18;;;;;;;4.95;1.08;;;;;;;5.41;100.00;99305.72;4996392;28;20525;-70
2022/11/21 00:32:45;;;;;;;5.03;1.10;;;;;;;5.41;100.00;99304.88;4998427;28;20466;-69
2022/11/21 00:35:12;;;;;;;2.15;0.98;;;;;;;5.37;100.00;99295.41;4993538;28;20142;-71
2022/11/21 00:37:38;;;;;;;4.30;0.80;;;;;;;5.38;100.00;99299.75;4987008;28;20046;-71
2022/11/21 00:40:05;;;;;;;1.15;0.70;;;;;;;5.39;100.00;99297.06;4999239;28;20549;-71
2022/11/21 00:42:32;;;;;;;6.22;0.88;;;;;;;5.41;100.00;99299.63;4998870;28;20069;-71
2022/11/21 00:44:58;;;;;;;5.50;0.80;;;;;;;5.42;100.00;99296.06;4994405;28;20065;-70
2022/11/21 00:47:25;;;;;;;4.03;0.70;;;;;;;5.43;100.00;99297.78;5000236;28;20096;-71
2022/11/21 00:49:51;;;;;;;3.42;0.70;;;;;;;5.38;100.00;99294.50;4997534;28;20760;-71
2022/11/21 00:52:18;;;;;;;2.63;0.65;;;;;;;5.38;100.00;99299.75;5001768;28;20521;-70
2022/11/21 00:54:45;;;;;;;3.28;0.55;;;;;;;5.36;100.00;99301.56;4994337;28;20129;-71
2022/11/21 00:57:11;;;;;;;2.85;0.55;;;;;;;5.34;100.00;99295.56;4989542;28;20144;-71
2022/11/21 00:59:38;;;;;;;3.67;0.80;;;;;;;5.17;100.00;99270.03;4997812;28;20125;-70
2022/11/21 01:02:04;;;;;;;3.78;0.90;;;;;;;5.21;100.00;99267.19;4998442;28;20053;-71
2022/11/21 01:04:33;;;;;;;3.50;0.77;;;;;;;5.38;100.00;99305.84;4998802;28;20518;-70
2022/11/21 01:07:00;;;;;;;1.67;0.70;;;;;;;5.32;100.00;99293.00;4980221;28;20049;-70
2022/11/21 01:09:27;;;;;;;1.50;0.50;;;;;;;5.29;100.00;99298.38;4999617;28;20474;-71
2022/11/21 01:11:55;;;;;;;3.97;0.80;;;;;;;5.32;100.00;99286.91;4992316;28;20046;-70
2022/11/21 01:14:22;;;;;;;3.80;1.13;;;;;;;5.38;100.00;99286.63;5002187;28;20500;-70
2022/11/21 01:16:48;;;;;;;1.60;0.75;;;;;;;5.36;100.00;99286.69;4979255;28;20054;-70
2022/11/21 01:19:15;;;;;;;4.28;1.10;;;;;;;5.34;100.00;99288.53;4994380;28;20058;-71
2022/11/21 01:21:41;;;;;;;3.50;0.77;;;;;;;5.34;100.00;99280.66;5000112;28;20053;-69
2022/11/21 01:24:10;;;;;;;1.95;0.50;;;;;;;5.15;100.00;99254.34;4991583;28;20046;-69
2022/11/21 01:26:37;;;;;;;8.52;1.10;;;;;;;5.13;100.00;99242.22;4973467;28;20057;-70
2022/11/21 01:29:04;;;;;;;5.53;1.02;;;;;;;5.36;100.00;99272.69;4995932;28;20136;-71
2022/11/21 01:31:31;;;;;;;8.77;1.40;;;;;;;5.39;100.00;99277.81;4997944;28;20061;-70
2022/11/21 01:33:59;;;;;;;3.88;0.80;;;;;;;5.36;100.00;99273.56;4994229;28;20132;-71
2022/11/21 01:36:28;;;;;;;4.63;1.00;;;;;;;5.44;100.00;99278.47;4987871;28;20073;-70
2022/11/21 01:38:57;;;;;;;5.03;0.80;;;;;;;5.43;100.00;99271.53;4996450;28;20064;-71
2022/11/21 01:41:30;;;;;;;8.27;1.27;;;;;;;5.46;100.00;99281.91;4998206;28;20503;-70
2022/11/21 01:43:57;;;;;;;7.22;1.30;;;;;;;5.44;100.00;99279.34;4993358;28;20061;-71
2022/11/21 01:46:24;;;;;;;5.65;1.33;;;;;;;5.49;100.00;99277.38;4983617;28;20653;-70
2022/11/21 01:49:08;;;;;;;4.85;1.00;;;;;;;5.46;100.00;99271.41;4985445;28;20485;-71
2022/11/21 01:51:54;;;;;;;7.15;1.40;;;;;;;5.43;100.00;99266.28;4999377;28;20050;-71
2022/11/21 01:54:44;;;;;;;6.28;1.20;;;;;;;5.41;100.00;99273.34;4989433;28;20129;-71
2022/11/21 01:57:20;;;;;;;6.13;1.20;;;;;;;5.40;100.00;99266.41;4984740;28;20064;-71
2022/11/21 01:59:53;;;;;;;7.45;2.17;;;;;;;5.36;100.00;99267.44;4997588;28;20136;-68
2022/11/21 02:02:26;;;;;;;7.93;1.30;;;;;;;5.43;100.00;99269.75;4998145;28;20525;-72
2022/11/21 02:04:54;;;;;;;5.43;1.30;;;;;;;5.44;100.00;99270.59;4999407;28;20588;-70
2022/11/21 02:07:23;;;;;;;9.40;1.77;;;;;;;5.45;100.00;99273.16;4977092;28;20564;-71
2022/11/21 02:09:58;;;;;;;4.93;1.60;;;;;;;5.39;100.00;99269.94;4996500;28;20062;-71
2022/11/21 02:12:47;;;;;;;6.65;1.45;;;;;;;5.39;100.00;99265.53;4991101;28;20435;-73
2022/11/21 02:15:14;;;;;;;5.35;1.52;;;;;;;5.26;100.00;99248.63;4983649;28;20059;-72
2022/11/21 02:17:40;;;;;;;10.30;2.00;;;;;;;5.32;100.00;99244.91;4980566;28;20052;-70
2022/11/21 02:20:11;;;;;;;5.70;1.58;;;;;;;5.45;100.00;99261.81;4990937;28;20082;-72
2022/11/21 02:22:43;;;;;;;7.32;1.80;;;;;;;5.46;100.00;99261.75;5005688;28;20049;-71
2022/11/21 02:25:21;;;;;;;8.60;2.17;;;;;;;5.46;100.00;99274.03;4997960;28;20046;-71
2022/11/21 02:27:51;;;;;;;10.30;2.17;;;;;;;5.46;100.00;99263.50;4988258;28;20461;-72
2022/11/21 02:30:18;;;;;;;9.88;2.13;;;;;;;5.48;100.00;99259.06;5000058;28;20125;-70
2022/11/21 02:32:48;;;;;;;10.35;2.22;;;;;;;5.45;100.00;99259.19;4998242;28;20133;-72
2022/11/21 02:35:17;;;;;;;11.82;2.05;;;;;;;5.50;100.00;99259.84;5002533;28;20050;-71
2022/11/21 02:37:45;;;;;;;9.00;1.85;;;;;;;5.54;100.00;99264.00;4984934;28;20137;-72
2022/11/21 02:40:21;;;;;;;11.68;2.08;;;;;;;5.54;100.00;99259.63;5004999;28;20039;-71
2022/11/21 02:43:17;;;;;;;10.48;2.13;;;;;;;5.17;100.00;99207.91;4994329;28;20125;-73
2022/11/21 02:45:45;;;;;;;9.30;2.15;;;;;;;5.48;100.00;99269.56;4996867;28;20046;-72
2022/11/21 02:48:12;;;;;;;16.15;2.60;;;;;;;5.44;100.00;99265.34;4982001;28;20062;-72
2022/11/21 02:50:42;;;;;;;14.45;2.47;;;;;;;5.46;100.00;99277.50;4999095;28;20053;-70
2022/11/21 02:53:14;;;;;;;14.50;2.42;;;;;;;5.40;100.00;99271.66;4994527;28;20126;-73
2022/11/21 02:55:42;;;;;;;15.32;2.60;;;;;;;5.47;100.00;99289.72;4984801;28;20081;-68
2022/11/21 02:58:09;;;;;;;10.43;2.25;;;;;;;5.51;100.00;99295.69;4979438;28;20042;-71
2022/11/21 03:00:37;;;;;;;12.30;2.55;;;;;;;5.41;100.00;99278.59;5005127;28;20061;-67
2022/11/21 03:03:04;;;;;;;10.50;2.17;;;;;;;5.50;100.00;99293.97;4995611;28;20046;-71
2022/11/21 03:05:30;;;;;;;11.18;2.47;;;;;;;5.49;100.00;99287.88;4997295;28;20133;-71
2022/11/21 03:07:57;;;;;;;10.38;2.35;;;;;;;5.51;100.00;99287.81;4979622;28;20050;-72
2022/11/21 03:10:24;;;;;;;10.18;2.28;;;;;;;5.53;100.00;99289.41;5001317;28;20050;-72
2022/11/21 03:12:59;;;;;;;12.60;2.33;;;;;;;5.56;100.00;99288.44;4996608;28;20137;-69
2022/11/21 03:15:29;;;;;;;13.45;2.53;;;;;;;5.51;100.00;99291.25;5000965;28;20072;-72
2022/11/21 03:17:56;;;;;;;12.68;2.72;;;;;;;5.45;100.00;99282.81;4985027;28;20050;-72
2022/11/21 03:20:23;;;;;;;10.73;3.10;;;;;;;5.58;100.00;99300.59;5004048;28;20046;-71
2022/11/21 03:22:49;;;;;;;15.25;2.88;;;;;;;5.58;100.00;99299.72;5004460;28;20066;-72
2022/11/21 03:25:16;;;;;;;9.70;2.50;;;;;;;5.56;100.00;99298.94;4992373;28;20042;-72
2022/11/21 03:27:43;;;;;;;11.23;2.45;;;;;;;5.57;100.00;99298.03;4982472;28;20139;-72
2022/11/21 03:30:10;;;;;;;18.27;2.55;;;;;;;5.54;100.00;99295.53;4996881;28;20054;-71
2022/11/21 03:32:37;;;;;;;17.63;3.10;;;;;;;5.57;100.00;99303.28;4987270;28;20093;-71
2022/11/21 03:35:04;;;;;;;11.23;2.50;;;;;;;5.57;100.00;99298.03;5000680;28;20061;-72
2022/11/21 03:37:30;;;;;;;16.50;2.80;;;;;;;5.40;100.00;99277.75;4984851;28;20153;-73
2022/11/21 03:39:57;;;;;;;13.18;2.97;;;;;;;5.58;100.00;99307.59;5000428;28;20049;-72
2022/11/21 03:42:23;;;;;;;13.52;2.80;;;;;;;5.59;100.00;99301.44;4997251;28;20042;-71
2022/11/21 03:44:50;;;;;;;11.65;2.60;;;;;;;5.60;100.00;99304.00;4997473;28;20061;-69
2022/11/21 03:47:17;;;;;;;12.32;2.53;;;;;;;5.58;100.00;99299.72;4984036;28;20466;-70
2022/11/21 03:49:43;;;;;;;14.57;2.90;;;;;;;5.57;100.00;99312.00;4996433;28;20509;-71
2022/11/21 03:52:10;;;;;;;14.63;2.70;;;;;;;5.40;100.00;99287.41;5001527;28;20049;-71
2022/11/21 03:54:36;;;;;;;14.70;2.55;;;;;;;5.59;100.00;99315.41;5002275;28;20052;-70
2022/11/21 03:57:03;;;;;;;10.27;2.75;;;;;;;5.59;100.00;99311.94;4987825;28;20053;-69
2022/11/21 03:59:29;;;;;;;14.32;2.78;;;;;;;5.55;100.00;99319.09;4992958;28;20066;-71
2022/11/21 04:01:56;;;;;;;12.95;2.33;;;;;;;5.61;100.00;99312.72;5002792;28;20132;-72
2022/11/21 04:04:23;;;;;;;16.45;3.05;;;;;;;5.64;100.00;99317.84;4998007;28;20407;-71
2022/11/21 04:06:49;;;;;;;11.75;3.00;;;;;;;5.61;100.00;99313.59;4996384;28;20517;-69
2022/11/21 04:09:16;;;;;;;12.52;2.95;;;;;;;5.62;100.00;99314.44;4992770;28;20463;-72
2022/11/21 04:11:42;;;;;;;11.48;2.50;;;;;;;5.61;100.00;99318.84;4994479;28;20172;-72
2022/11/21 04:14:09;;;;;;;15.05;2.70;;;;;;;5.61;100.00;99321.47;5000465;28;20075;-72
2022/11/21 04:16:35;;;;;;;9.35;2.50;;;;;;;5.63;100.00;99321.41;4996373;28;20054;-72
2022/11/21 04:19:02;;;;;;;10.60;2.30;;;;;;;5.59;100.00;99304.06;4991159;28;20469;-70
2022/11/21 04:21:28;;;;;;;11.30;2.47;;;;;;;5.73;100.00;99317.44;5001455;28;20046;-71
2022/11/21 04:23:55;;;;;;;9.75;2.50;;;;;;;5.77;100.00;99323.41;4996429;28;20117;-69
2022/11/21 04:26:22;;;;;;;13.23;2.83;;;;;;;5.81;100.00;99335.50;4998787;28;20538;-72
2022/11/21 04:28:48;;;;;;;14.23;2.30;;;;;;;5.77;100.00;99332.16;4984679;28;20149;-72
2022/11/21 04:31:15;;;;;;;10.13;2.17;;;;;;;5.74;100.00;99328.81;4999421;28;20121;-70
2022/11/21 04:33:41;;;;;;;7.82;2.35;;;;;;;5.75;100.00;99325.25;4992116;28;20057;-69
2022/11/21 04:36:08;;;;;;;12.20;2.40;;;;;;;5.67;100.00;99317.69;5001519;28;20046;-70
2022/11/21 04:38:35;;;;;;;6.30;2.40;;;;;;;5.80;100.00;99329.41;4983148;28;20131;-70
2022/11/21 04:41:03;;;;;;;9.65;1.88;;;;;;;5.81;100.00;99314.47;5000248;28;20094;-70
2022/11/21 04:43:30;;;;;;;11.10;3.25;;;;;;;5.85;100.00;99326.53;4999232;28;20065;-70
2022/11/21 04:45:56;;;;;;;7.43;2.08;;;;;;;5.85;100.00;99326.53;4994769;28;20074;-71
2022/11/21 04:48:23;;;;;;;8.23;1.63;;;;;;;5.88;100.00;99322.03;4996809;28;20054;-70
2022/11/21 04:50:50;;;;;;;7.80;2.10;;;;;;;5.87;100.00;99324.69;4996264;28;20053;-72
2022/11/21 04:53:16;;;;;;;5.72;1.83;;;;;;;5.69;100.00;99292.22;5003286;28;20046;-71
2022/11/21 04:55:43;;;;;;;8.27;2.17;;;;;;;5.88;100.00;99324.66;4990951;28;20054;-72
2022/11/21 04:58:09;;;;;;;8.40;1.92;;;;;;;5.95;100.00;99328.75;4985017;28;20042;-71
2022/11/21 05:00:36;;;;;;;8.82;1.85;;;;;;;5.94;100.00;99324.41;5000216;28;20058;-72
2022/11/21 05:03:04;;;;;;;12.35;2.40;;;;;;;5.95;100.00;99331.38;4993576;28;20061;-71
2022/11/21 05:05:31;;;;;;;10.48;2.22;;;;;;;5.97;100.00;99326.03;5003807;28;20064;-72
2022/11/21 05:07:58;;;;;;;5.85;1.75;;;;;;;5.98;100.00;99325.13;4985887;28;20048;-72
2022/11/21 05:10:24;;;;;;;10.35;1.90;;;;;;;5.89;100.00;99317.63;5001087;28;20122;-68
2022/11/21 05:15:44;;;;;;;7.85;1.90;;;;;;;5.96;100.00;99335.69;5000567;28;20105;-72
2022/11/21 05:18:11;;;;;;;8.70;2.17;;;;;;;5.89;100.00;99336.88;4980426;28;20064;-71
2022/11/21 05:20:38;;;;;;;6.80;2.10;;;;;;;5.84;100.00;99341.44;5008308;28;20123;-72
2022/11/21 05:23:04;;;;;;;6.57;1.73;;;;;;;5.82;100.00;99342.47;5000569;28;20486;-71
2022/11/21 05:25:31;;;;;;;5.00;1.77;;;;;;;5.79;100.00;99332.94;4991063;28;20047;-72
2022/11/21 05:27:57;;;;;;;6.03;1.92;;;;;;;5.82;100.00;99345.09;4979767;28;20567;-72
2022/11/21 05:30:24;;;;;;;6.13;1.92;;;;;;;5.78;100.00;99333.00;4993062;28;20667;-71
2022/11/21 05:32:51;;;;;;;6.28;1.75;;;;;;;5.87;100.00;99340.47;4994276;28;20125;-71
2022/11/21 05:35:17;;;;;;;7.45;2.33;;;;;;;5.87;100.00;99336.06;4999913;28;20130;-69
2022/11/21 05:37:44;;;;;;;7.30;2.20;;;;;;;5.90;100.00;99329.84;4981648;28;20066;-71
2022/11/21 05:40:11;;;;;;;7.28;1.83;;;;;;;5.83;100.00;99331.84;4996329;28;20050;-69
2022/11/21 05:45:24;;;;;;;4.35;1.40;;;;;;;5.69;100.00;99334.25;4997452;28;20133;-71
2022/11/21 05:47:50;;;;;;;6.53;1.60;;;;;;;5.67;100.00;99332.63;4981552;28;20154;-71
2022/11/21 05:50:17;;;;;;;6.78;1.70;;;;;;;5.54;100.00;99332.28;4993732;28;20038;-71
2022/11/21 05:52:44;;;;;;;8.55;2.10;;;;;;;5.54;100.00;99338.41;5001942;28;20455;-71
2022/11/21 05:55:10;;;;;;;7.22;1.90;;;;;;;5.53;100.00;99336.69;4997001;28;20573;-72
2022/11/21 05:57:37;;;;;;;9.10;4.32;;;;;;;5.56;100.00;99333.06;4986567;28;20513;-71
2022/11/21 06:00:04;;;;;;;7.13;1.70;;;;;;;5.59;100.00;99343.47;4995948;28;20046;-72
2022/11/21 06:05:16;;;;;;;8.18;2.80;;;;;;;5.64;100.00;99339.72;4996321;28;20209;-70
2022/11/21 06:07:42;;;;;;;7.50;2.00;;;;;;;5.52;100.00;99313.13;4985208;28;20051;-70
2022/11/21 06:10:09;;;;;;;6.05;2.10;;;;;;;5.60;100.00;99338.13;4997365;28;20050;-70
2022/11/21 06:12:35;;;;;;;5.22;2.38;;;;;;;5.54;100.00;99332.28;4996008;28;20125;-71
2022/11/21 06:15:02;;;;;;;5.72;2.38;;;;;;;5.53;100.00;99330.56;5001692;28;20498;-68
2022/11/21 06:17:29;;;;;;;7.55;2.35;;;;;;;5.52;100.00;99334.97;4992963;28;20109;-69
2022/11/21 06:19:56;;;;;;;5.07;3.05;;;;;;;5.31;100.00;99299.16;4986474;28;20081;-71
2022/11/21 06:22:22;;;;;;;5.82;2.72;;;;;;;5.48;100.00;99328.19;4996502;28;20082;-69
2022/11/21 06:24:49;;;;;;;8.00;2.67;;;;;;;5.49;100.00;99336.91;4995433;28;20121;-70
2022/11/21 06:27:15;;;;;;;6.15;2.15;;;;;;;5.47;100.00;99333.50;4989843;28;20050;-69
2022/11/21 06:29:42;;;;;;;7.00;2.13;;;;;;;5.37;100.00;99340.03;4988200;28;20120;-70
2022/11/21 06:32:08;;;;;;;5.78;2.33;;;;;;;5.15;100.00;99304.22;4999504;28;20074;-70
2022/11/21 06:34:35;;;;;;;7.15;2.50;;;;;;;5.35;100.00;99326.16;4997065;28;20148;-71
2022/11/21 06:37:01;;;;;;;6.20;1.98;;;;;;;5.34;100.00;99333.16;4994677;28;20140;-68
2022/11/21 06:39:28;;;;;;;6.50;2.30;;;;;;;5.13;100.00;99313.91;4984362;28;20057;-69
2022/11/21 06:41:55;;;;;;;7.85;2.28;;;;;;;5.05;100.00;99299.41;4993039;28;20046;-72
2022/11/21 06:44:22;;;;;;;7.78;2.20;;;;;;;5.15;100.00;99329.59;5002450;28;20073;-70
2022/11/21 06:46:48;;;;;;;8.60;2.85;;;;;;;5.14;100.00;99327.91;4999615;28;20042;-70
2022/11/21 06:49:17;;;;;;;8.13;2.38;;;;;;;4.99;100.00;99312.78;4977015;28;20114;-69
2022/11/21 06:51:44;;;;;;;6.57;2.33;;;;;;;5.14;100.00;99347.13;4997779;28;20049;-70
2022/11/21 06:54:10;;;;;;;7.63;2.38;;;;;;;5.12;100.00;99355.97;5001281;28;20081;-71
2022/11/21 06:56:42;;;;;;;4.68;2.15;;;;;;;5.16;100.00;99355.78;4991680;28;20054;-71
2022/11/21 06:59:09;;;;;;;9.32;2.47;;;;;;;5.19;100.00;99362.69;4978781;28;20126;-69
2022/11/21 07:01:36;;;;;;;7.47;2.22;;;;;;;5.16;100.00;99350.53;5001481;28;20152;-69
2022/11/21 07:04:03;;;;;;;6.35;2.40;;;;;;;5.22;100.00;99362.53;4990521;28;20088;-70
2022/11/21 07:06:29;;;;;;;7.15;2.85;;;;;;;5.08;100.00;99334.25;5006194;28;20046;-69
2022/11/21 07:08:56;;;;;;;8.43;2.13;;;;;;;5.29;100.00;99353.50;4983753;28;20054;-70
2022/11/21 07:11:43;;;;;;;7.13;3.28;;;;;;;5.40;100.00;99356.50;4998575;28;20042;-71
2022/11/21 07:14:13;;;;;;;6.65;3.45;;;;;;;5.45;100.00;99353.69;5002148;28;20468;-71
2022/11/21 07:16:39;;;;;;;8.30;4.22;;;;;;;5.31;100.00;99321.94;4996131;28;20489;-71
2022/11/21 07:19:06;;;;;;;9.75;4.60;;;;;;;5.57;100.00;99358.41;4979599;28;20511;-69
2022/11/21 07:21:33;;;;;;;12.00;5.57;;;;;;;5.59;100.00;99360.06;5002370;28;20134;-69
2022/11/21 07:23:59;;;;;;;5.72;2.50;;;;;;;5.55;100.00;99355.84;4996690;28;20491;-72
2022/11/21 07:26:26;;;;;;;8.80;3.00;;;;;;;5.54;100.00;99348.03;4998910;28;20056;-71
2022/11/21 07:28:53;;;;;;;7.78;2.72;;;;;;;5.60;100.00;99363.53;4987212;28;20062;-72
2022/11/21 07:31:19;;;;;;;10.07;2.70;;;;;;;5.59;100.00;99362.69;5005537;28;20053;-70
2022/11/21 07:33:46;;;;;;;6.68;2.72;;;;;;;5.63;100.00;99368.69;4995814;28;20059;-71
2022/11/21 07:36:13;;;;;;;6.05;2.50;;;;;;;5.58;100.00;99378.50;5000542;28;20129;-72
2022/11/21 07:38:40;;;;;;;8.60;2.70;;;;;;;5.57;100.00;99384.69;4988453;28;20133;-70
2022/11/21 07:41:08;;;;;;;7.78;2.75;;;;;;;5.52;100.00;99377.00;5003249;28;20055;-72
2022/11/21 07:43:34;;;;;;;8.27;3.28;;;;;;;5.57;100.00;99379.44;4994133;28;20506;-71
2022/11/21 07:46:01;;;;;;;8.98;4.10;;;;;;;5.64;100.00;99384.38;4998790;28;20073;-71
2022/11/21 07:48:27;;;;;;;6.60;4.20;;;;;;;5.57;100.00;99361.91;4983966;28;20121;-71
2022/11/21 07:50:54;;;;;;;6.75;3.55;;;;;;;5.65;100.00;99374.72;4993840;28;20167;-71
2022/11/21 07:53:20;;;;;;;6.75;3.22;;;;;;;5.61;100.00;99379.25;5004728;28;20064;-68
2022/11/21 07:55:47;;;;;;;8.27;3.40;;;;;;;5.67;100.00;99385.97;4997607;28;20134;-71
2022/11/21 07:58:15;;;;;;;4.03;2.75;;;;;;;5.54;100.00;99354.16;4983870;28;20058;-71
2022/11/21 08:00:42;;;;;;;8.05;3.67;;;;;;;5.71;100.00;99377.06;4997317;28;20132;-71
2022/11/21 08:03:13;;;;;;;13.93;5.47;;;;;;;5.63;100.00;99364.28;4995254;28;20048;-70
2022/11/21 08:05:41;;;;;;;13.82;5.18;;;;;;;5.75;100.00;99373.38;4998089;28;20058;-69
2022/11/21 08:08:12;;;;;;;8.32;3.95;;;;;;;5.80;100.00;99381.94;4985626;28;20065;-72
2022/11/21 08:10:40;;;;;;;;;;;;;;;5.86;100.00;99380.78;4986238;28;20050;-72
2022/11/21 08:13:06;;;;;;;13.93;4.07;;;;;;;5.82;100.00;99369.59;5003268;28;19968;-73
2022/11/21 08:15:33;;;;;;;9.43;4.35;;;;;;;5.88;100.00;99374.59;5001340;28;20058;-72
2022/11/21 08:18:11;;;;;;;7.55;4.03;;;;;;;5.91;100.00;99368.34;4989880;28;20495;-71
2022/11/21 08:20:38;;;;;;;6.82;3.42;;;;;;;6.07;100.00;99376.41;4990069;28;20069;-70
2022/11/21 08:23:05;;;;;;;12.43;3.70;;;;;;;6.14;100.00;99373.41;5001427;28;20050;-72
2022/11/21 08:25:35;;;;;;;7.18;3.90;;;;;;;6.16;100.00;99373.34;4996910;28;20074;-74
2022/11/21 08:28:02;;;;;;;9.52;3.20;;;;;;;6.13;100.00;99363.00;4995027;28;20056;-71
2022/11/21 08:30:29;;;;;;;7.25;3.00;;;;;;;6.15;100.00;99367.25;4990271;28;20050;-73
2022/11/21 08:33:00;;;;;;;9.05;2.88;;;;;;;6.11;100.00;99365.69;5002441;28;20069;-73
2022/11/21 08:35:27;;;;;;;;;;;;;;;6.12;100.00;99372.66;4999211;28;20050;-73
2022/11/21 08:38:00;;;;;;;4.78;2.72;;;;;;;5.92;100.00;99343.78;4990343;28;20025;-73
2022/11/21 08:40:29;;;;;;;6.07;2.47;;;;;;;6.08;100.00;99375.47;4981981;28;20049;-72
2022/11/21 08:43:00;;;;;;;6.32;2.60;;;;;;;6.07;100.00;99369.38;4992987;28;20125;-72
2022/11/21 08:45:27;;;;;;;6.72;2.65;;;;;;;6.05;100.00;99373.00;4999476;28;20065;-74
2022/11/21 08:47:54;;;;;;;6.40;2.47;;;;;;;5.93;100.00;99338.47;4986386;28;20046;-70
2022/11/21 08:50:22;;;;;;;7.47;3.45;;;;;;;6.20;100.00;99370.53;4980243;28;20080;-72
2022/11/21 08:52:48;;;;;;;6.22;2.72;;;;;;;6.31;100.00;99367.38;5002401;28;20184;-71
2022/11/21 08:55:15;;;;;;;5.55;2.72;;;;;;;6.39;100.00;99372.31;5000080;28;20129;-72
2022/11/21 08:57:42;;;;;;;4.45;3.20;;;;;;;6.45;100.00;99359.75;4994913;28;20132;-72
2022/11/21 09:00:13;;;;;;;8.05;2.58;;;;;;;6.44;100.00;99358.03;4983227;28;20047;-72
2022/11/21 09:02:39;;;;;;;6.75;3.22;;;;;;;6.37;100.00;99356.59;4995603;28;20536;-72
2022/11/21 09:05:07;;;;;;;6.03;2.13;;;;;;;6.24;100.00;99353.69;4998743;28;20042;-72
2022/11/21 09:07:34;;;;;;;5.32;2.58;;;;;;;6.18;100.00;99346.06;4994698;28;20078;-72
2022/11/21 09:10:01;;;;;;;7.25;2.53;;;;;;;6.24;100.00;99364.22;4980644;28;20104;-73
2022/11/21 09:12:27;;;;;;;8.25;2.83;;;;;;;6.28;100.00;99357.91;4995539;28;20408;-73
2022/11/21 09:20:24;;;;;;;6.90;2.65;;;;;;;6.16;100.00;99333.91;4983233;28;20153;-73
2022/11/21 09:22:51;;;;;;;6.88;2.25;;;;;;;6.29;100.00;99358.75;4999735;28;20050;-72
2022/11/21 09:25:17;;;;;;;6.32;3.10;;;;;;;6.29;100.00;99364.00;4993233;28;20108;-72
2022/11/21 09:27:44;;;;;;;6.63;3.13;;;;;;;6.25;100.00;99358.03;4995102;28;20474;-69
2022/11/21 09:30:11;;;;;;;8.82;3.13;;;;;;;6.27;100.00;99360.59;4981363;28;20129;-73
2022/11/21 09:32:39;;;;;;;8.25;3.15;;;;;;;6.27;100.00;99352.69;4989718;28;20136;-73
2022/11/21 09:35:05;;;;;;;6.07;2.50;;;;;;;6.49;100.00;99363.91;4998053;28;20077;-72
2022/11/21 09:37:39;;;;;;;6.20;2.60;;;;;;;6.62;100.00;99359.78;4994619;28;20135;-72
2022/11/21 09:40:06;;;;;;;10.20;3.00;;;;;;;6.70;100.00;99354.16;4979926;28;20042;-71
2022/11/21 09:42:57;;;;;;;8.25;2.63;;;;;;;6.78;100.00;99341.47;4994994;28;20133;-73
2022/11/21 09:45:40;;;;;;;;;;;;;;;6.88;100.00;99349.81;4996898;28;20109;-74
2022/11/21 09:48:11;;;;;;;5.43;2.50;;;;;;;6.84;100.00;99341.19;4985791;28;19957;-71
2022/11/21 09:50:44;;;;;;;4.60;2.22;;;;;;;6.86;100.00;99349.88;4985365;28;20208;-73
2022/11/21 09:53:30;;;;;;;5.90;2.65;;;;;;;6.77;100.00;99357.38;4997630;28;20061;-73
2022/11/21 09:56:01;;;;;;;7.82;4.35;;;;;;;6.45;100.00;99320.31;4994018;28;20045;-72
2022/11/21 09:58:55;;;;;;;4.72;2.67;;;;;;;6.55;100.00;99347.84;4990393;28;20124;-72
2022/11/21 10:01:22;;;;;;;9.00;2.50;;;;;;;6.56;100.00;99340.81;4997882;28;20078;-72
2022/11/21 10:03:51;;;;;;;5.22;2.20;;;;;;;6.57;100.00;99338.13;4994284;28;20053;-72
2022/11/21 10:06:27;;;;;;;7.40;1.95;;;;;;;6.40;100.00;99306.50;4992743;28;20054;-71
2022/11/21 10:09:29;;;;;;;11.60;2.38;;;;;;;6.52;100.00;99312.94;4986997;28;20137;-70
2022/11/21 10:15:21;;;;;;;5.05;1.80;;;;;;;6.50;100.00;99293.75;5000404;28;20237;-72
2022/11/21 10:18:25;;;;;;;5.07;1.83;;;;;;;6.58;100.00;99324.03;4992258;28;20134;-71
2022/11/21 10:21:15;;;;;;;4.18;1.80;;;;;;;6.52;100.00;99302.44;4981109;28;20137;-72
2022/11/21 10:23:57;;;;;;;5.10;1.90;;;;;;;6.85;100.00;99321.00;4990019;28;20050;-72
2022/11/21 10:26:55;;;;;;;6.28;2.20;;;;;;;7.07;100.00;99310.28;5000429;28;20132;-72
2022/11/21 10:29:31;;;;;;;4.88;2.28;;;;;;;7.24;100.00;99305.84;4976719;28;20808;-72
2022/11/21 10:32:02;;;;;;;5.70;1.70;;;;;;;7.41;100.00;99299.72;5000884;28;20422;-71
2022/11/21 10:34:34;;;;;;;5.78;1.88;;;;;;;7.51;100.00;99292.22;4997554;28;20081;-73
2022/11/21 10:37:35;;;;;;;7.10;1.73;;;;;;;7.62;100.00;99293.34;4995249;28;20045;-72
2022/11/21 10:40:14;;;;;;;6.28;1.65;;;;;;;7.65;100.00;99284.44;4982851;28;20069;-71
2022/11/21 10:42:55;;;;;;;6.50;1.77;;;;;;;7.60;100.00;99287.31;5000194;28;20080;-72
2022/11/21 10:45:22;;;;;;;6.20;1.77;;;;;;;7.55;100.00;99280.59;5001070;28;20395;-73
2022/11/21 10:47:51;;;;;;;4.53;1.98;;;;;;;7.38;100.00;99270.94;4991229;28;20082;-73
2022/11/21 10:50:37;;;;;;;6.30;1.75;;;;;;;7.15;100.00;99251.03;4987247;28;20050;-73
2022/11/21 10:54:31;;;;;;;6.18;2.08;;;;;;;7.26;100.00;99275.03;5005492;28;20054;-72
2022/11/21 10:56:15;;;;;;;12.82;2.22;;;;;;;7.21;100.00;99268.31;4997902;28;20088;-73
2022/11/21 10:58:56;;;;;;;5.05;2.60;;;;;;;7.35;100.00;99273.72;4997806;28;20088;-71
2022/11/21 11:01:26;;;;;;;7.15;1.98;;;;;;;7.29;100.00;99264.34;4996769;28;20136;-73
2022/11/21 11:04:10;;;;;;;6.50;2.15;;;;;;;7.31;100.00;99262.47;4997161;28;20491;-73
2022/11/21 11:06:56;;;;;;;5.00;1.75;;;;;;;7.35;100.00;99264.03;5000741;28;20483;-74
2022/11/21 11:09:31;;;;;;;8.82;2.60;;;;;;;7.22;100.00;99241.06;4993896;28;20054;-72
2022/11/21 11:12:19;;;;;;;4.35;1.77;;;;;;;7.49;100.00;99259.81;4994726;28;20138;-74
2022/11/21 11:14:54;;;;;;;5.80;1.63;;;;;;;7.50;100.00;99254.47;5002559;28;20509;-71
2022/11/21 11:17:32;;;;;;;6.50;2.20;;;;;;;7.57;100.00;99250.56;4997263;28;20086;-73
2022/11/21 11:20:05;;;;;;;5.90;1.95;;;;;;;7.56;100.00;99250.66;4978496;28;20594;-73
2022/11/21 11:22:32;;;;;;;6.28;2.05;;;;;;;7.53;100.00;99245.56;5002132;28;20168;-75
2022/11/21 11:25:03;;;;;;;6.05;2.35;;;;;;;7.50;100.00;99243.94;4997848;28;20108;-73
2022/11/21 11:27:30;;;;;;;6.55;1.85;;;;;;;7.61;100.00;99240.72;5000152;28;20072;-72
2022/11/21 11:30:06;;;;;;;3.42;1.90;;;;;;;7.53;100.00;99199.00;4985282;28;20057;-72
2022/11/21 11:32:38;;;;;;;13.88;3.95;;;;;;;7.82;100.00;99222.94;4994603;28;20153;-73
2022/11/21 11:35:21;;;;;;;8.13;2.28;;;;;;;7.75;100.00;99196.91;4999981;28;20081;-72
2022/11/21 11:38:01;;;;;;;7.07;2.22;;;;;;;7.96;100.00;99226.50;5001783;28;20564;-71
2022/11/21 11:40:31;;;;;;;4.30;1.48;;;;;;;7.92;100.00;99224.13;4983763;28;20085;-72
2022/11/21 11:49:03;;;;;;;4.68;1.92;;;;;;;7.94;100.00;99203.81;4987607;28;20113;-72
2022/11/21 11:51:55;;;;;;;5.97;1.45;;;;;;;7.89;100.00;99201.41;4991961;28;20147;-72
2022/11/21 11:54:51;;;;;;;6.75;2.20;;;;;;;7.81;100.00;99192.25;4991279;28;20082;-71
2022/11/21 11:57:18;;;;;;;7.18;2.00;;;;;;;7.92;100.00;99195.97;4995021;28;20055;-72
2022/11/21 12:00:02;;;;;;;6.10;1.95;;;;;;;7.79;100.00;99162.47;4998702;28;20041;-71
2022/11/21 12:03:00;;;;;;;3.63;1.45;;;;;;;7.86;100.00;99190.22;4984987;28;20348;-71
2022/11/21 12:05:29;;;;;;;6.28;1.67;;;;;;;7.62;100.00;99168.66;5003380;28;20077;-70
2022/11/21 12:08:16;;;;;;;6.82;1.08;;;;;;;7.46;100.00;99191.50;4997489;28;20413;-73